createdAt,value
2018-09-15T00:00:55.992Z,59.38
2018-09-15T00:03:25.412Z,59.62
2018-09-15T00:05:54.777Z,60.43
2018-09-15T00:08:23.587Z,60.34
2018-09-15T00:10:52.449Z,62.25
2018-09-15T00:13:22.313Z,62.16
2018-09-15T00:15:51.383Z,59.97
2018-09-15T00:18:20.159Z,59.06
2018-09-15T00:20:49.254Z,59.47
2018-09-15T00:23:18.150Z,59.89
2018-09-15T00:25:47.193Z,58.88
2018-09-15T00:28:17.032Z,59.83
2018-09-15T00:30:46.108Z,61.02
2018-09-15T00:33:15.109Z,61.23
2018-09-15T00:35:44.684Z,60.99
2018-09-15T00:38:14.198Z,60.95
2018-09-15T00:40:42.994Z,60.32
2018-09-15T00:43:11.879Z,60.33
2018-09-15T00:45:40.838Z,60.18
2018-09-15T00:48:09.674Z,59.06
2018-09-15T00:50:39.197Z,60.39
2018-09-15T00:53:08.123Z,60.13
2018-09-15T00:55:37.598Z,60.66
2018-09-15T00:58:07.228Z,59.89
2018-09-15T01:00:35.917Z,59.52
2018-09-15T01:03:05.198Z,60.39
2018-09-15T01:05:34.401Z,59.37
2018-09-15T01:08:03.336Z,59.71
2018-09-15T01:10:32.062Z,60.50
2018-09-15T01:13:00.972Z,60.63
2018-09-15T01:15:29.737Z,60.25
2018-09-15T01:17:58.583Z,59.01
2018-09-15T01:20:27.223Z,59.58
2018-09-15T01:22:56.112Z,59.27
2018-09-15T01:25:24.909Z,59.73
2018-09-15T01:27:53.897Z,59.56
2018-09-15T01:30:23.342Z,58.66
2018-09-15T01:32:52.175Z,59.37
2018-09-15T01:35:21.078Z,58.76
2018-09-15T01:37:50.452Z,59.66
2018-09-15T01:40:19.357Z,60.07
2018-09-15T01:42:48.648Z,59.91
2018-09-15T01:45:17.292Z,60.13
2018-09-15T01:47:46.041Z,59.36
2018-09-15T01:50:15.368Z,59.24
2018-09-15T01:52:44.103Z,58.95
2018-09-15T01:55:13.087Z,59.25
2018-09-15T01:57:41.893Z,58.69
2018-09-15T02:00:10.674Z,59.60
2018-09-15T02:02:39.614Z,60.15
2018-09-15T02:05:08.433Z,58.91
2018-09-15T02:07:37.378Z,59.95
2018-09-15T02:10:06.743Z,60.44
2018-09-15T02:12:35.911Z,58.56
2018-09-15T02:15:04.991Z,60.78
2018-09-15T02:17:34.799Z,60.37
2018-09-15T02:20:04.870Z,60.01
2018-09-15T02:22:34.618Z,60.05
2018-09-15T02:25:03.402Z,59.63
2018-09-15T02:27:32.266Z,61.67
2018-09-15T02:30:01.064Z,60.72
2018-09-15T02:32:30.029Z,61.19
2018-09-15T02:34:59.104Z,61.04
2018-09-15T02:37:27.969Z,59.46
2018-09-15T02:39:57.207Z,60.84
2018-09-15T02:42:26.304Z,60.64
2018-09-15T02:44:56.008Z,60.07
2018-09-15T02:47:24.945Z,61.11
2018-09-15T02:49:54.064Z,60.96
2018-09-15T02:52:23.343Z,60.50
2018-09-15T02:54:52.327Z,61.26
2018-09-15T02:57:21.697Z,61.34
2018-09-15T02:59:51.214Z,60.92
2018-09-15T03:02:19.977Z,60.91
2018-09-15T03:04:48.869Z,60.84
2018-09-15T03:07:18.355Z,61.17
2018-09-15T03:09:47.183Z,61.35
2018-09-15T03:12:15.931Z,62.43
2018-09-15T03:14:45.023Z,62.39
2018-09-15T03:17:13.848Z,60.44
2018-09-15T03:19:43.188Z,60.63
2018-09-15T03:22:12.526Z,61.29
2018-09-15T03:24:41.592Z,61.39
2018-09-15T03:27:11.586Z,60.94
2018-09-15T03:29:41.002Z,61.79
2018-09-15T03:32:09.847Z,61.69
2018-09-15T03:34:38.603Z,61.23
2018-09-15T03:37:07.998Z,61.15
2018-09-15T03:39:36.819Z,61.37
2018-09-15T03:42:05.731Z,61.77
2018-09-15T03:44:34.884Z,60.95
2018-09-15T03:47:03.649Z,62.62
2018-09-15T03:49:32.447Z,61.60
2018-09-15T03:52:02.228Z,61.84
2018-09-15T03:54:31.209Z,62.26
2018-09-15T03:57:00.118Z,61.85
2018-09-15T03:59:29.899Z,62.51
2018-09-15T04:01:59.807Z,63.01
2018-09-15T04:04:28.788Z,62.70
2018-09-15T04:06:58.129Z,61.72
2018-09-15T04:09:26.971Z,61.81
2018-09-15T04:11:55.706Z,61.70
2018-09-15T04:14:24.451Z,61.51
2018-09-15T04:16:53.868Z,61.43
2018-09-15T04:19:23.271Z,61.27
2018-09-15T04:21:52.127Z,62.60
2018-09-15T04:24:21.402Z,62.84
2018-09-15T04:26:50.693Z,62.53
2018-09-15T04:29:19.608Z,63.25
2018-09-15T04:31:48.452Z,62.75
2018-09-15T04:34:17.327Z,63.12
2018-09-15T04:36:46.335Z,63.25
2018-09-15T04:39:15.078Z,63.28
2018-09-15T04:41:43.867Z,63.37
2018-09-15T04:44:12.756Z,62.74
2018-09-15T04:46:41.748Z,63.42
2018-09-15T04:49:10.683Z,64.35
2018-09-15T04:51:40.049Z,64.00
2018-09-15T04:54:09.252Z,63.01
2018-09-15T04:56:38.140Z,63.17
2018-09-15T04:59:06.863Z,63.26
2018-09-15T05:01:35.693Z,62.92
2018-09-15T05:04:05.773Z,62.77
2018-09-15T05:06:35.024Z,62.37
2018-09-15T05:09:04.549Z,63.17
2018-09-15T05:11:33.323Z,63.67
2018-09-15T05:14:02.181Z,63.28
2018-09-15T05:16:30.942Z,62.88
2018-09-15T05:19:00.335Z,62.40
2018-09-15T05:21:29.151Z,62.64
2018-09-15T05:23:58.406Z,62.98
2018-09-15T05:26:27.291Z,63.02
2018-09-15T05:28:56.088Z,62.96
2018-09-15T05:31:24.926Z,63.04
2018-09-15T05:33:53.807Z,63.72
2018-09-15T05:36:22.442Z,63.92
2018-09-15T05:38:51.211Z,63.42
2018-09-15T05:41:20.147Z,63.48
2018-09-15T05:43:49.072Z,63.09
2018-09-15T05:46:18.076Z,64.46
2018-09-15T05:48:47.097Z,65.03
2018-09-15T05:51:16.468Z,64.13
2018-09-15T05:53:45.382Z,64.20
2018-09-15T05:56:14.323Z,64.89
2018-09-15T05:58:43.148Z,64.80
2018-09-15T06:01:12.096Z,64.44
2018-09-15T06:03:40.828Z,65.12
2018-09-15T06:06:11.032Z,64.81
2018-09-15T06:08:39.712Z,64.92
2018-09-15T06:11:08.497Z,66.21
2018-09-15T06:13:37.475Z,65.23
2018-09-15T06:16:06.197Z,64.56
2018-09-15T06:18:35.885Z,64.39
2018-09-15T06:21:05.471Z,64.12
2018-09-15T06:23:35.290Z,63.80
2018-09-15T06:26:04.938Z,64.63
2018-09-15T06:28:34.897Z,65.50
2018-09-15T06:31:03.778Z,65.17
2018-09-15T06:33:33.201Z,64.96
2018-09-15T06:36:01.966Z,64.28
2018-09-15T06:38:31.509Z,63.46
2018-09-15T06:41:00.969Z,65.22
2018-09-15T06:43:29.696Z,63.17
2018-09-15T06:45:59.113Z,61.22
2018-09-15T06:48:28.167Z,61.22
2018-09-15T06:50:57.053Z,58.47
2018-09-15T06:53:25.816Z,56.46
2018-09-15T06:55:54.608Z,59.47
2018-09-15T06:58:23.507Z,61.29
2018-09-15T07:00:52.419Z,62.32
2018-09-15T07:03:21.392Z,63.12
2018-09-15T07:05:50.147Z,62.85
2018-09-15T07:08:19.133Z,62.64
2018-09-15T07:10:47.997Z,61.01
2018-09-15T07:13:16.680Z,61.70
2018-09-15T07:15:45.546Z,60.39
2018-09-15T07:18:14.547Z,60.82
2018-09-15T07:20:43.717Z,62.43
2018-09-15T07:23:12.465Z,61.58
2018-09-15T07:25:41.926Z,61.74
2018-09-15T07:28:11.362Z,60.79
2018-09-15T07:30:40.231Z,59.69
2018-09-15T07:33:09.078Z,59.79
2018-09-15T07:35:37.894Z,59.76
2018-09-15T07:38:06.827Z,59.99
2018-09-15T07:40:35.636Z,60.75
2018-09-15T07:43:04.562Z,59.70
2018-09-15T07:45:33.539Z,59.27
2018-09-15T07:48:02.493Z,58.84
2018-09-15T07:50:31.158Z,58.82
2018-09-15T07:52:59.869Z,59.59
2018-09-15T07:55:28.631Z,59.03
2018-09-15T07:57:57.423Z,58.94
2018-09-15T08:00:26.177Z,59.45
2018-09-15T08:02:54.861Z,59.11
2018-09-15T08:05:23.601Z,58.73
2018-09-15T08:07:53.322Z,59.22
2018-09-15T08:10:22.083Z,58.64
2018-09-15T08:12:50.801Z,60.36
2018-09-15T08:15:19.681Z,60.40
2018-09-15T08:17:49.436Z,60.41
2018-09-15T08:20:18.172Z,59.56
2018-09-15T08:22:47.402Z,57.96
2018-09-15T08:25:16.200Z,59.56
2018-09-15T08:27:46.021Z,59.07
2018-09-15T08:30:14.896Z,58.87
2018-09-15T08:32:43.774Z,57.83
2018-09-15T08:35:12.763Z,57.84
2018-09-15T08:37:41.640Z,58.65
2018-09-15T08:40:10.442Z,58.60
2018-09-15T08:42:39.436Z,57.66
2018-09-15T08:45:08.322Z,59.00
2018-09-15T08:47:37.288Z,58.79
2018-09-15T08:50:06.482Z,58.90
2018-09-15T08:52:36.007Z,57.32
2018-09-15T08:55:06.383Z,58.45
2018-09-15T08:57:36.226Z,58.00
2018-09-15T09:00:06.036Z,58.85
2018-09-15T09:02:35.762Z,58.50
2018-09-15T09:05:04.821Z,59.07
2018-09-15T09:07:33.662Z,57.99
2018-09-15T09:10:02.423Z,59.10
2018-09-15T09:12:31.411Z,58.32
2018-09-15T09:15:00.106Z,57.71
2018-09-15T09:17:28.912Z,57.41
2018-09-15T09:19:58.412Z,57.56
2018-09-15T09:22:27.376Z,56.20
2018-09-15T09:24:56.845Z,55.27
2018-09-15T09:27:25.655Z,55.30
2018-09-15T09:29:54.515Z,54.97
2018-09-15T09:32:23.403Z,54.16
2018-09-15T09:34:52.483Z,54.84
2018-09-15T09:37:21.246Z,54.28
2018-09-15T09:39:50.068Z,53.75
2018-09-15T09:42:19.035Z,53.53
2018-09-15T09:44:48.007Z,52.35
2018-09-15T09:47:17.486Z,53.00
2018-09-15T09:49:46.300Z,53.03
2018-09-15T09:52:15.153Z,53.00
2018-09-15T09:54:43.902Z,53.59
2018-09-15T09:57:12.557Z,54.12
2018-09-15T09:59:41.572Z,55.21
2018-09-15T10:02:13.140Z,53.56
2018-09-15T10:04:41.898Z,54.19
2018-09-15T10:07:11.290Z,52.15
2018-09-15T10:09:41.171Z,51.74
2018-09-15T10:12:11.126Z,51.39
2018-09-15T10:14:40.077Z,50.24
2018-09-15T10:17:08.833Z,50.69
2018-09-15T10:19:37.861Z,49.33
2018-09-15T10:22:07.036Z,48.31
2018-09-15T10:24:36.137Z,47.50
2018-09-15T10:27:05.117Z,47.39
2018-09-15T10:29:34.416Z,46.98
2018-09-15T10:32:04.000Z,47.06
2018-09-15T10:34:32.827Z,47.04
2018-09-15T10:37:01.655Z,46.05
2018-09-15T10:39:31.187Z,46.78
2018-09-15T10:41:59.923Z,47.71
2018-09-15T10:44:28.715Z,46.17
2018-09-15T10:46:57.658Z,46.88
2018-09-15T10:49:26.432Z,47.04
2018-09-15T10:51:55.228Z,47.64
2018-09-15T10:54:24.113Z,46.50
2018-09-15T10:56:53.088Z,45.85
2018-09-15T10:59:21.865Z,46.68
2018-09-15T11:01:51.390Z,46.57
2018-09-15T11:04:20.150Z,46.13
2018-09-15T11:06:49.071Z,46.27
2018-09-15T11:09:17.909Z,46.44
2018-09-15T11:11:46.770Z,45.70
2018-09-15T11:14:15.680Z,45.08
2018-09-15T11:16:44.709Z,45.49
2018-09-15T11:19:13.495Z,45.25
2018-09-15T11:21:42.296Z,44.73
2018-09-15T11:24:11.161Z,43.15
2018-09-15T11:26:40.705Z,43.19
2018-09-15T11:29:09.528Z,43.73
2018-09-15T11:31:39.355Z,45.06
2018-09-15T11:34:08.363Z,44.56
2018-09-15T11:36:37.766Z,44.83
2018-09-15T11:39:08.985Z,44.77
2018-09-15T11:41:38.005Z,44.85
2018-09-15T11:44:06.877Z,45.78
2018-09-15T11:46:35.817Z,45.08
2018-09-15T11:49:04.783Z,45.42
2018-09-15T11:51:33.720Z,45.79
2018-09-15T11:54:03.521Z,46.14
2018-09-15T11:56:32.290Z,46.33
2018-09-15T11:59:01.169Z,47.45
2018-09-15T12:01:30.677Z,46.23
2018-09-15T12:03:59.477Z,46.63
2018-09-15T12:06:28.150Z,47.18
2018-09-15T12:08:56.829Z,47.63
2018-09-15T12:11:25.634Z,47.53
2018-09-15T12:13:54.423Z,49.11
2018-09-15T12:16:23.790Z,48.62
2018-09-15T12:18:52.577Z,48.16
2018-09-15T12:21:21.560Z,48.20
2018-09-15T12:23:50.535Z,48.67
2018-09-15T12:26:19.320Z,49.13
2018-09-15T12:28:47.980Z,49.18
2018-09-15T12:31:16.828Z,48.61
2018-09-15T12:33:45.625Z,49.32
2018-09-15T12:36:14.323Z,49.19
2018-09-15T12:38:43.019Z,49.47
2018-09-15T12:41:12.627Z,49.42
2018-09-15T12:43:41.596Z,49.31
2018-09-15T12:46:11.067Z,48.96
2018-09-15T12:48:39.885Z,49.59
2018-09-15T12:51:09.333Z,49.11
2018-09-15T12:53:38.346Z,48.84
2018-09-15T12:56:07.257Z,49.19
2018-09-15T12:58:36.231Z,48.69
2018-09-15T13:01:05.075Z,48.73
2018-09-15T13:03:33.745Z,47.77
2018-09-15T13:06:02.860Z,46.84
2018-09-15T13:08:31.961Z,47.69
2018-09-15T13:11:01.060Z,46.96
2018-09-15T13:13:29.930Z,47.64
2018-09-15T13:15:58.647Z,48.25
2018-09-15T13:18:27.515Z,48.60
2018-09-15T13:20:57.144Z,48.37
2018-09-15T13:23:25.883Z,49.28
2018-09-15T13:25:54.584Z,50.20
2018-09-15T13:28:23.491Z,52.28
2018-09-15T13:30:52.129Z,51.92
2018-09-15T13:33:20.802Z,52.12
2018-09-15T13:35:49.807Z,53.36
2018-09-15T13:38:18.523Z,52.14
2018-09-15T13:40:47.357Z,53.89
2018-09-15T13:43:15.985Z,54.28
2018-09-15T13:45:44.770Z,53.08
2018-09-15T13:48:13.456Z,52.49
2018-09-15T13:50:42.201Z,54.31
2018-09-15T13:53:10.937Z,54.48
2018-09-15T13:55:39.567Z,54.57
2018-09-15T13:58:08.290Z,55.78
2018-09-15T14:00:36.950Z,55.75
2018-09-15T14:03:06.647Z,55.33
2018-09-15T14:05:35.430Z,55.53
2018-09-15T14:08:04.385Z,55.36
2018-09-15T14:10:33.360Z,53.78
2018-09-15T14:13:02.203Z,54.76
2018-09-15T14:15:31.063Z,52.67
2018-09-15T14:17:59.853Z,53.00
2018-09-15T14:20:29.270Z,52.35
2018-09-15T14:22:57.930Z,51.48
2018-09-15T14:25:27.209Z,50.97
2018-09-15T14:27:55.870Z,49.70
2018-09-15T14:30:24.543Z,50.42
2018-09-15T14:32:53.211Z,50.27
2018-09-15T14:35:22.157Z,50.91
2018-09-15T14:37:50.953Z,52.04
2018-09-15T14:40:20.982Z,51.85
2018-09-15T14:42:50.289Z,52.87
2018-09-15T14:45:20.049Z,52.38
2018-09-15T14:47:48.893Z,53.45
2018-09-15T14:50:17.674Z,52.06
2018-09-15T14:52:46.454Z,52.02
2018-09-15T14:55:15.299Z,52.41
2018-09-15T14:57:44.313Z,51.49
2018-09-15T15:00:13.064Z,51.14
2018-09-15T15:02:41.989Z,51.83
2018-09-15T15:05:10.991Z,50.07
2018-09-15T15:07:40.371Z,51.61
2018-09-15T15:10:09.181Z,51.55
2018-09-15T15:12:39.141Z,50.85
2018-09-15T15:15:09.095Z,49.82
2018-09-15T15:17:37.943Z,49.84
2018-09-15T15:20:07.079Z,50.81
2018-09-15T15:22:35.936Z,50.16
2018-09-15T15:25:05.460Z,49.41
2018-09-15T15:27:34.231Z,49.64
2018-09-15T15:30:04.116Z,50.71
2018-09-15T15:32:32.983Z,50.52
2018-09-15T15:35:01.795Z,50.31
2018-09-15T15:37:31.824Z,50.42
2018-09-15T15:40:00.590Z,50.14
2018-09-15T15:42:29.307Z,50.51
2018-09-15T15:44:58.015Z,50.51
2018-09-15T15:47:26.629Z,49.84
2018-09-15T15:49:55.311Z,49.42
2018-09-15T15:52:23.990Z,49.90
2018-09-15T15:54:52.689Z,48.14
2018-09-15T16:00:28.231Z,47.97
2018-09-15T16:02:56.951Z,49.09
2018-09-15T16:05:26.031Z,49.32
2018-09-15T16:07:54.893Z,47.09
2018-09-15T16:10:23.800Z,47.04
2018-09-15T16:12:52.479Z,48.40
2018-09-15T16:15:21.151Z,48.33
2018-09-15T16:17:50.540Z,47.63
2018-09-15T16:20:19.208Z,48.25
2018-09-15T16:22:48.405Z,48.38
2018-09-15T16:25:17.206Z,48.42
2018-09-15T16:27:46.826Z,47.28
2018-09-15T16:30:15.723Z,48.79
2018-09-15T16:32:44.557Z,47.64
2018-09-15T16:35:13.373Z,49.21
2018-09-15T16:37:42.325Z,48.85
2018-09-15T16:40:11.756Z,48.10
2018-09-15T16:42:40.760Z,48.48
2018-09-15T16:45:11.779Z,48.66
2018-09-15T16:47:41.657Z,48.62
2018-09-15T16:50:10.448Z,49.70
2018-09-15T16:52:39.315Z,48.53
2018-09-15T16:55:08.368Z,49.67
2018-09-15T16:57:37.340Z,49.14
2018-09-15T17:00:06.163Z,49.32
2018-09-15T17:02:34.984Z,49.23
2018-09-15T17:05:03.920Z,51.25
2018-09-15T17:07:32.624Z,50.27
2018-09-15T17:10:01.276Z,48.74
2018-09-15T17:12:29.971Z,50.82
2018-09-15T17:14:58.651Z,50.15
2018-09-15T17:17:27.390Z,50.85
2018-09-15T17:19:56.148Z,51.59
2018-09-15T17:22:24.909Z,50.76
2018-09-15T17:24:53.538Z,49.86
2018-09-15T17:27:22.231Z,50.78
2018-09-15T17:29:50.964Z,51.74
2018-09-15T17:32:21.255Z,51.53
2018-09-15T17:34:50.644Z,50.99
2018-09-15T17:37:19.795Z,52.49
2018-09-15T17:39:48.601Z,51.30
2018-09-15T17:42:17.301Z,53.80
2018-09-15T17:44:46.266Z,53.17
2018-09-15T17:47:15.125Z,53.68
2018-09-15T17:49:44.911Z,54.42
2018-09-15T17:52:13.709Z,54.32
2018-09-15T17:54:42.740Z,53.63
2018-09-15T17:57:11.534Z,54.47
2018-09-15T17:59:40.490Z,55.13
2018-09-15T18:02:09.491Z,54.92
2018-09-15T18:04:38.487Z,54.87
2018-09-15T18:07:07.514Z,55.42
2018-09-15T18:09:36.932Z,55.81
2018-09-15T18:12:05.860Z,56.12
2018-09-15T18:14:34.851Z,56.83
2018-09-15T18:17:04.365Z,57.72
2018-09-15T18:19:33.186Z,57.61
2018-09-15T18:22:01.995Z,57.45
2018-09-15T18:24:30.840Z,58.07
2018-09-15T18:26:59.654Z,58.30
2018-09-15T18:29:28.300Z,59.33
2018-09-15T18:31:57.589Z,59.29
2018-09-15T18:34:27.231Z,58.23
2018-09-15T18:36:56.134Z,57.63
2018-09-15T18:39:25.856Z,58.45
2018-09-15T18:41:55.129Z,59.17
2018-09-15T18:44:24.693Z,58.80
2018-09-15T18:46:53.516Z,59.98
2018-09-15T18:49:22.740Z,60.07
2018-09-15T18:51:51.375Z,60.07
2018-09-15T18:54:20.092Z,59.92
2018-09-15T18:56:48.988Z,61.03
2018-09-15T18:59:17.684Z,60.75
2018-09-15T19:01:46.395Z,60.89
2018-09-15T19:04:15.200Z,61.38
2018-09-15T19:06:44.049Z,60.50
2018-09-15T19:09:13.175Z,61.39
2018-09-15T19:11:42.236Z,61.04
2018-09-15T19:14:11.516Z,61.09
2018-09-15T19:16:41.133Z,61.77
2018-09-15T19:19:09.807Z,61.21
2018-09-15T19:21:38.604Z,61.30
2018-09-15T19:24:07.948Z,61.63
2018-09-15T19:26:37.469Z,62.25
2018-09-15T19:29:06.554Z,61.72
2018-09-15T19:31:35.398Z,61.87
2018-09-15T19:34:04.064Z,61.80
2018-09-15T19:36:33.534Z,60.88
2018-09-15T19:39:03.807Z,61.39
2018-09-15T19:41:32.484Z,61.58
2018-09-15T19:44:01.403Z,62.61
2018-09-15T19:46:30.999Z,62.73
2018-09-15T19:48:59.713Z,62.18
2018-09-15T19:51:28.618Z,62.52
2018-09-15T19:53:57.262Z,62.51
2018-09-15T19:56:25.909Z,62.02
2018-09-15T19:58:54.559Z,63.20
2018-09-15T20:01:23.324Z,64.94
2018-09-15T20:03:52.047Z,62.82
2018-09-15T20:06:20.713Z,63.38
2018-09-15T20:08:49.414Z,63.12
2018-09-15T20:11:18.213Z,62.78
2018-09-15T20:13:47.254Z,63.66
2018-09-15T20:16:14.818Z,63.62
2018-09-15T20:18:42.216Z,63.61
2018-09-15T20:21:09.628Z,63.62
2018-09-15T20:23:38.709Z,63.61
2018-09-15T20:26:07.792Z,63.10
2018-09-15T20:28:36.643Z,64.36
2018-09-15T20:31:05.435Z,63.85
2018-09-15T20:33:34.567Z,63.32
2018-09-15T20:36:04.217Z,63.50
2018-09-15T20:38:33.164Z,64.42
2018-09-15T20:41:02.235Z,64.02
2018-09-15T20:43:31.287Z,63.56
2018-09-15T20:45:59.999Z,63.91
2018-09-15T20:48:28.721Z,64.09
2018-09-15T20:50:57.435Z,64.51
2018-09-15T20:53:26.146Z,64.20
2018-09-15T20:55:54.869Z,64.53
2018-09-15T20:58:23.517Z,64.20
2018-09-15T21:00:52.514Z,64.86
2018-09-15T21:03:21.173Z,65.28
2018-09-15T21:05:50.230Z,65.52
2018-09-15T21:08:19.090Z,65.35
2018-09-15T21:10:47.839Z,65.64
2018-09-15T21:13:17.137Z,65.46
2018-09-15T21:15:46.931Z,65.43
2018-09-15T21:18:15.860Z,65.25
2018-09-15T21:20:45.360Z,65.59
2018-09-15T21:23:14.970Z,66.28
2018-09-15T21:25:43.898Z,66.00
2018-09-15T21:28:12.800Z,66.40
2018-09-15T21:30:42.452Z,66.35
2018-09-15T21:33:11.333Z,65.92
2018-09-15T21:35:40.658Z,66.17
2018-09-15T21:38:09.795Z,65.62
2018-09-15T21:40:38.789Z,65.06
2018-09-15T21:43:07.948Z,66.54
2018-09-15T21:45:36.873Z,66.96
2018-09-15T21:48:05.658Z,66.76
2018-09-15T21:50:34.488Z,66.59
2018-09-15T21:53:03.147Z,66.14
2018-09-15T21:55:31.899Z,66.43
2018-09-15T21:58:00.689Z,66.40
2018-09-15T22:00:29.555Z,66.53
2018-09-15T22:02:58.364Z,69.95
2018-09-15T22:05:27.258Z,65.92
2018-09-15T22:07:56.753Z,64.11
2018-09-15T22:10:25.707Z,64.38
2018-09-15T22:12:54.483Z,64.90
2018-09-15T22:15:25.549Z,65.34
2018-09-15T22:17:55.648Z,65.97
2018-09-15T22:20:24.553Z,66.17
2018-09-15T22:22:53.544Z,67.11
2018-09-15T22:25:22.391Z,66.23
2018-09-15T22:27:51.768Z,65.07
2018-09-15T22:30:20.633Z,65.52
2018-09-15T22:32:49.432Z,65.66
2018-09-15T22:35:18.389Z,66.18
2018-09-15T22:37:47.248Z,66.36
2018-09-15T22:40:16.171Z,67.67
2018-09-15T22:42:45.413Z,66.75
2018-09-15T22:45:14.947Z,66.80
2018-09-15T22:47:43.917Z,67.06
2018-09-15T22:50:13.002Z,67.31
2018-09-15T22:52:41.782Z,67.04
2018-09-15T22:55:10.578Z,67.52
2018-09-15T22:57:40.263Z,67.22
2018-09-15T23:00:09.999Z,66.30
2018-09-15T23:02:38.953Z,66.86
2018-09-15T23:05:08.150Z,66.63
2018-09-15T23:07:37.078Z,67.28
2018-09-15T23:10:06.199Z,67.61
2018-09-15T23:12:35.258Z,67.53
2018-09-15T23:15:04.244Z,67.79
2018-09-15T23:17:33.235Z,67.24
2018-09-15T23:20:02.129Z,67.04
2018-09-15T23:22:31.077Z,66.97
2018-09-15T23:24:59.978Z,66.93
2018-09-15T23:27:28.695Z,67.69
2018-09-15T23:29:57.487Z,68.11
2018-09-15T23:32:26.237Z,68.34
2018-09-15T23:34:55.762Z,67.32
2018-09-15T23:37:24.481Z,67.01
2018-09-15T23:39:53.240Z,67.59
2018-09-15T23:42:22.497Z,67.84
2018-09-15T23:44:51.443Z,69.47
2018-09-15T23:47:20.272Z,68.54
2018-09-15T23:49:49.264Z,67.77
2018-09-15T23:52:18.124Z,68.44
2018-09-15T23:54:47.069Z,68.45
2018-09-15T23:57:15.978Z,67.72
2018-09-15T23:59:45.683Z,67.39
